createdAt,value
2022-08-16T00:01:33.997Z,1.77
2022-08-16T00:03:37.585Z,2.17
2022-08-16T00:05:48.500Z,2.67
2022-08-16T00:07:56.076Z,2.72
2022-08-16T00:09:59.428Z,2.00
2022-08-16T00:12:01.859Z,1.75
2022-08-16T00:14:08.727Z,2.10
2022-08-16T00:17:01.350Z,2.78
2022-08-16T00:18:32.981Z,3.88
2022-08-16T00:20:35.079Z,3.03
2022-08-16T00:22:39.109Z,1.95
2022-08-16T00:24:46.834Z,3.50
2022-08-16T00:26:49.565Z,1.83
2022-08-16T00:28:54.869Z,4.53
2022-08-16T00:30:59.272Z,2.92
2022-08-16T00:33:03.081Z,2.53
2022-08-16T00:35:15.154Z,1.65
2022-08-16T00:37:20.294Z,3.05
2022-08-16T00:39:22.374Z,2.05
2022-08-16T00:41:24.673Z,2.33
2022-08-16T00:43:42.617Z,1.60
2022-08-16T00:46:00.597Z,3.08
2022-08-16T00:48:30.781Z,2.60
2022-08-16T00:50:35.828Z,2.80
2022-08-16T00:52:51.318Z,2.50
2022-08-16T00:54:53.568Z,2.35
2022-08-16T00:57:00.005Z,1.83
2022-08-16T00:59:02.860Z,1.70
2022-08-16T01:01:07.999Z,2.15
2022-08-16T01:03:12.799Z,3.40
2022-08-16T01:05:14.788Z,2.33
2022-08-16T01:07:18.319Z,1.63
2022-08-16T01:09:20.822Z,2.05
2022-08-16T01:11:25.849Z,3.55
2022-08-16T01:13:31.566Z,2.15
2022-08-16T01:15:37.705Z,2.75
2022-08-16T01:17:47.479Z,2.63
2022-08-16T01:20:02.601Z,2.00
2022-08-16T01:22:48.448Z,2.30
2022-08-16T01:25:04.189Z,2.35
2022-08-16T01:27:12.273Z,2.97
2022-08-16T01:29:56.791Z,3.08
2022-08-16T01:31:48.648Z,2.25
2022-08-16T01:33:53.861Z,2.00
2022-08-16T01:36:11.766Z,2.45
2022-08-16T01:38:25.742Z,3.72
2022-08-16T01:40:31.123Z,3.20
2022-08-16T01:42:33.565Z,2.75
2022-08-16T01:44:38.259Z,2.33
2022-08-16T01:46:47.566Z,2.38
2022-08-16T01:48:57.160Z,2.63
2022-08-16T01:51:09.052Z,2.42
2022-08-16T01:53:18.994Z,4.72
2022-08-16T01:55:41.377Z,2.88
2022-08-16T01:57:53.169Z,2.72
2022-08-16T01:59:58.072Z,2.03
2022-08-16T02:02:00.993Z,2.35
2022-08-16T02:04:11.326Z,4.10
2022-08-16T02:06:15.603Z,3.95
2022-08-16T02:08:35.714Z,2.25
2022-08-16T02:10:38.497Z,2.00
2022-08-16T02:12:51.915Z,3.90
2022-08-16T02:14:55.310Z,3.40
2022-08-16T02:16:59.492Z,2.00
2022-08-16T02:19:02.525Z,1.83
2022-08-16T02:21:31.233Z,2.63
2022-08-16T02:23:36.394Z,2.15
2022-08-16T02:25:52.516Z,2.20
2022-08-16T02:27:58.866Z,3.85
2022-08-16T02:30:04.986Z,2.85
2022-08-16T02:32:49.211Z,2.33
2022-08-16T02:34:32.978Z,3.72
2022-08-16T02:36:49.666Z,3.20
2022-08-16T02:38:53.434Z,4.15
2022-08-16T02:40:57.727Z,3.72
2022-08-16T02:43:00.914Z,3.35
2022-08-16T02:45:05.740Z,4.40
2022-08-16T02:47:09.307Z,3.53
2022-08-16T02:49:12.298Z,3.85
2022-08-16T02:51:16.347Z,3.65
2022-08-16T02:53:23.374Z,2.80
2022-08-16T02:55:40.973Z,3.63
2022-08-16T02:57:54.286Z,3.97
2022-08-16T02:59:56.591Z,4.05
2022-08-16T03:01:58.300Z,3.33
2022-08-16T03:04:46.323Z,3.30
2022-08-16T03:06:41.524Z,3.30
2022-08-16T03:09:13.850Z,3.28
2022-08-16T03:11:22.497Z,6.70
2022-08-16T03:13:24.282Z,4.93
2022-08-16T03:15:27.740Z,3.47
2022-08-16T03:17:32.480Z,4.05
2022-08-16T03:19:47.551Z,3.50
2022-08-16T03:21:58.582Z,4.35
2022-08-16T03:24:00.937Z,3.08
2022-08-16T03:26:03.013Z,3.85
2022-08-16T03:28:07.599Z,6.50
2022-08-16T03:30:18.302Z,4.10
2022-08-16T03:32:26.146Z,5.10
2022-08-16T03:34:29.428Z,3.20
2022-08-16T03:36:32.892Z,3.53
2022-08-16T03:38:38.966Z,3.85
2022-08-16T03:40:47.368Z,4.65
2022-08-16T03:43:18.892Z,3.30
2022-08-16T03:45:14.444Z,3.55
2022-08-16T03:47:19.830Z,3.22
2022-08-16T03:49:36.709Z,3.20
2022-08-16T03:51:42.354Z,3.40
2022-08-16T03:54:00.870Z,4.25
2022-08-16T03:56:08.005Z,2.95
2022-08-16T03:58:22.626Z,3.45
2022-08-16T04:00:35.941Z,3.10
2022-08-16T04:02:45.770Z,4.88
2022-08-16T04:04:53.878Z,3.90
2022-08-16T04:06:56.312Z,3.38
2022-08-16T04:08:59.358Z,4.35
2022-08-16T04:11:03.916Z,3.30
2022-08-16T04:13:20.333Z,3.25
2022-08-16T04:15:23.040Z,3.28
2022-08-16T04:17:44.206Z,4.72
2022-08-16T04:19:46.588Z,3.40
2022-08-16T04:21:50.913Z,4.00
2022-08-16T04:24:01.073Z,3.70
2022-08-16T04:26:02.626Z,3.65
2022-08-16T04:28:54.686Z,4.10
2022-08-16T04:30:31.909Z,5.25
2022-08-16T04:32:38.804Z,4.13
2022-08-16T04:34:45.987Z,3.92
2022-08-16T04:36:48.921Z,3.42
2022-08-16T04:38:52.470Z,4.38
2022-08-16T04:40:54.526Z,3.25
2022-08-16T04:42:56.875Z,4.00
2022-08-16T04:45:02.022Z,4.72
2022-08-16T04:47:21.190Z,4.40
2022-08-16T04:49:26.813Z,3.33
2022-08-16T04:51:41.287Z,3.78
2022-08-16T04:53:43.343Z,4.28
2022-08-16T04:55:45.138Z,6.32
2022-08-16T04:57:53.342Z,4.47
2022-08-16T04:59:56.828Z,3.88
2022-08-16T05:01:59.511Z,3.28
2022-08-16T05:04:02.106Z,4.60
2022-08-16T05:06:10.655Z,3.85
2022-08-16T05:08:28.870Z,4.65
2022-08-16T05:10:37.793Z,3.75
2022-08-16T05:12:41.369Z,4.35
2022-08-16T05:15:01.817Z,4.18
2022-08-16T05:17:05.698Z,3.58
2022-08-16T05:19:11.588Z,3.92
2022-08-16T05:21:38.066Z,3.67
2022-08-16T05:23:41.144Z,5.28
2022-08-16T05:25:48.305Z,3.20
2022-08-16T05:27:51.722Z,3.22
2022-08-16T05:30:01.017Z,3.65
2022-08-16T05:32:11.049Z,3.47
2022-08-16T05:34:29.669Z,3.28
2022-08-16T05:36:33.961Z,3.40
2022-08-16T05:38:39.282Z,3.47
2022-08-16T05:40:57.339Z,2.95
2022-08-16T05:43:03.564Z,3.88
2022-08-16T05:45:07.763Z,3.13
2022-08-16T05:47:11.088Z,3.95
2022-08-16T05:49:22.480Z,4.50
2022-08-16T05:51:39.090Z,3.95
2022-08-16T05:53:42.569Z,4.13
2022-08-16T05:55:47.846Z,3.33
2022-08-16T05:57:52.357Z,3.40
2022-08-16T05:59:59.623Z,3.42
2022-08-16T06:02:13.929Z,3.88
2022-08-16T06:04:36.703Z,4.50
2022-08-16T06:06:55.877Z,4.03
2022-08-16T06:08:59.790Z,4.75
2022-08-16T06:11:10.519Z,3.58
2022-08-16T06:13:15.491Z,2.78
2022-08-16T06:15:21.173Z,3.13
2022-08-16T06:17:23.209Z,3.50
2022-08-16T06:19:25.456Z,6.05
2022-08-16T06:21:37.105Z,3.83
2022-08-16T06:23:40.639Z,3.15
2022-08-16T06:25:52.222Z,4.43
2022-08-16T06:27:58.393Z,3.72
2022-08-16T06:30:11.243Z,4.15
2022-08-16T06:32:27.863Z,3.90
2022-08-16T06:34:55.222Z,3.88
2022-08-16T06:36:59.574Z,3.20
2022-08-16T06:39:06.141Z,3.25
2022-08-16T06:41:28.263Z,3.78
2022-08-16T06:43:44.469Z,3.20
2022-08-16T06:45:51.324Z,4.88
2022-08-16T06:47:56.624Z,3.75
2022-08-16T06:50:02.978Z,3.38
2022-08-16T06:52:57.350Z,3.25
2022-08-16T06:54:36.084Z,5.78
2022-08-16T06:56:37.807Z,4.07
2022-08-16T06:58:42.817Z,2.90
2022-08-16T07:00:49.906Z,3.10
2022-08-16T07:02:56.564Z,2.92
2022-08-16T07:04:58.238Z,3.13
2022-08-16T07:07:00.150Z,3.10
2022-08-16T07:09:01.979Z,3.75
2022-08-16T07:11:13.620Z,2.95
2022-08-16T07:13:43.928Z,2.70
2022-08-16T07:15:49.974Z,3.33
2022-08-16T07:17:57.430Z,3.25
2022-08-16T07:20:29.768Z,3.80
2022-08-16T07:22:38.662Z,3.55
2022-08-16T07:24:46.381Z,2.60
2022-08-16T07:26:48.668Z,3.78
2022-08-16T07:28:52.201Z,5.50
2022-08-16T07:30:54.178Z,4.15
2022-08-16T07:33:10.677Z,3.05
2022-08-16T07:35:18.758Z,3.53
2022-08-16T07:37:23.182Z,4.55
2022-08-16T07:39:43.340Z,2.83
2022-08-16T07:41:45.440Z,3.10
2022-08-16T07:43:48.688Z,3.80
2022-08-16T07:45:53.452Z,2.97
2022-08-16T07:47:55.619Z,4.22
2022-08-16T07:49:58.984Z,4.05
2022-08-16T07:52:01.830Z,2.80
2022-08-16T07:54:37.776Z,3.08
2022-08-16T07:56:44.786Z,5.50
2022-08-16T07:58:46.884Z,4.90
2022-08-16T08:00:58.300Z,3.05
2022-08-16T08:03:02.663Z,4.05
2022-08-16T08:05:06.353Z,3.15
2022-08-16T08:07:09.163Z,3.50
2022-08-16T08:09:12.856Z,4.05
2022-08-16T08:11:14.409Z,2.95
2022-08-16T08:13:20.325Z,3.60
2022-08-16T08:15:52.583Z,3.30
2022-08-16T08:17:55.846Z,2.70
2022-08-16T08:20:09.686Z,2.95
2022-08-16T08:22:19.473Z,2.97
2022-08-16T08:24:31.486Z,3.72
2022-08-16T08:26:34.996Z,3.78
2022-08-16T08:28:36.737Z,4.20
2022-08-16T08:30:51.359Z,3.45
2022-08-16T08:33:00.716Z,3.92
2022-08-16T08:35:12.562Z,3.47
2022-08-16T08:37:15.103Z,3.53
2022-08-16T08:39:21.008Z,3.47
2022-08-16T08:41:29.241Z,3.45
2022-08-16T08:43:41.363Z,3.40
2022-08-16T08:45:48.878Z,4.32
2022-08-16T08:47:58.583Z,3.00
2022-08-16T08:50:05.212Z,3.83
2022-08-16T08:52:07.967Z,3.50
2022-08-16T08:54:10.730Z,3.55
2022-08-16T08:56:23.381Z,3.42
2022-08-16T08:58:34.988Z,3.97
2022-08-16T09:00:51.621Z,3.42
2022-08-16T09:02:54.983Z,3.50
2022-08-16T09:04:58.500Z,4.13
2022-08-16T09:07:01.294Z,3.67
2022-08-16T09:09:06.699Z,4.07
2022-08-16T09:11:08.559Z,3.40
2022-08-16T09:13:14.411Z,3.22
2022-08-16T09:15:21.820Z,3.30
2022-08-16T09:17:47.150Z,4.50
2022-08-16T09:19:49.368Z,4.22
2022-08-16T09:21:56.378Z,2.80
2022-08-16T09:23:58.361Z,3.20
2022-08-16T09:26:00.479Z,4.22
2022-08-16T09:28:09.221Z,3.70
2022-08-16T09:30:33.444Z,3.35
2022-08-16T09:32:37.666Z,3.15
2022-08-16T09:34:39.260Z,3.42
2022-08-16T09:36:45.957Z,3.47
2022-08-16T09:38:48.348Z,3.20
2022-08-16T09:40:53.270Z,3.20
2022-08-16T09:42:59.304Z,3.22
2022-08-16T09:45:12.620Z,3.85
2022-08-16T09:47:23.505Z,3.17
2022-08-16T09:49:26.311Z,3.17
2022-08-16T09:51:39.220Z,2.63
2022-08-16T09:53:41.835Z,3.20
2022-08-16T09:55:49.294Z,4.82
2022-08-16T09:57:52.898Z,3.33
2022-08-16T09:59:56.238Z,5.68
2022-08-16T10:01:59.780Z,3.22
2022-08-16T10:04:04.132Z,3.28
2022-08-16T10:06:07.590Z,4.88
2022-08-16T10:08:25.382Z,3.35
2022-08-16T10:10:31.057Z,3.17
2022-08-16T10:12:55.399Z,3.95
2022-08-16T10:14:57.605Z,3.72
2022-08-16T10:17:04.994Z,3.13
2022-08-16T10:19:07.602Z,3.35
2022-08-16T10:21:10.537Z,3.10
2022-08-16T10:23:17.198Z,3.33
2022-08-16T10:27:19.943Z,3.95
2022-08-16T10:27:56.942Z,3.20
2022-08-16T10:30:24.704Z,3.22
2022-08-16T10:32:27.450Z,3.08
2022-08-16T10:34:32.814Z,2.90
2022-08-16T10:36:38.656Z,3.30
2022-08-16T10:38:42.124Z,3.38
2022-08-16T10:40:45.425Z,3.80
2022-08-16T10:42:49.575Z,5.00
2022-08-16T10:44:53.769Z,2.80
2022-08-16T10:46:56.788Z,3.10
2022-08-16T10:48:58.435Z,3.78
2022-08-16T10:51:02.856Z,3.97
2022-08-16T10:53:07.867Z,3.45
2022-08-16T10:57:33.380Z,3.78
2022-08-16T10:59:43.908Z,3.72
2022-08-16T11:06:38.342Z,3.25
2022-08-16T11:08:45.466Z,3.20
2022-08-16T11:11:06.862Z,2.72
2022-08-16T11:15:35.888Z,3.50
2022-08-16T11:17:44.933Z,2.90
2022-08-16T11:20:42.313Z,3.10
2022-08-16T11:22:38.944Z,2.85
2022-08-16T11:24:41.772Z,4.35
2022-08-16T11:26:45.527Z,3.70
2022-08-16T11:29:15.270Z,2.97
2022-08-16T11:31:20.060Z,3.50
2022-08-16T11:33:52.023Z,4.40
2022-08-16T11:36:22.166Z,3.10
2022-08-16T11:38:47.195Z,2.83
2022-08-16T11:40:57.334Z,3.25
2022-08-16T11:43:04.090Z,3.50
2022-08-16T11:45:07.258Z,3.35
2022-08-16T11:47:09.473Z,2.70
2022-08-16T11:49:13.700Z,2.80
2022-08-16T11:51:15.804Z,2.67
2022-08-16T11:53:18.747Z,3.03
2022-08-16T11:55:20.344Z,2.80
2022-08-16T11:57:25.363Z,3.80
2022-08-16T11:59:29.305Z,3.00
2022-08-16T12:01:54.695Z,3.05
2022-08-16T12:03:52.626Z,3.17
2022-08-16T12:05:54.740Z,2.80
2022-08-16T12:07:56.994Z,4.50
2022-08-16T12:10:06.356Z,3.47
2022-08-16T12:12:10.006Z,3.10
2022-08-16T12:14:11.681Z,3.00
2022-08-16T12:16:17.461Z,4.40
2022-08-16T12:18:22.430Z,3.20
2022-08-16T12:20:27.903Z,3.45
2022-08-16T12:22:31.839Z,2.60
2022-08-16T12:24:38.877Z,2.88
2022-08-16T12:26:40.533Z,2.80
2022-08-16T12:28:54.583Z,2.70
2022-08-16T12:30:57.942Z,2.92
2022-08-16T12:33:02.907Z,3.15
2022-08-16T12:35:07.594Z,3.47
2022-08-16T12:37:11.773Z,4.18
2022-08-16T12:39:15.092Z,3.88
2022-08-16T12:41:24.670Z,3.15
2022-08-16T12:43:31.142Z,3.58
2022-08-16T12:45:38.098Z,3.33
2022-08-16T12:48:29.713Z,3.42
2022-08-16T12:50:20.350Z,2.80
2022-08-16T12:52:32.895Z,3.67
2022-08-16T12:54:37.335Z,2.60
2022-08-16T12:56:41.459Z,2.55
2022-08-16T12:58:49.201Z,2.58
2022-08-16T13:00:52.355Z,2.50
2022-08-16T13:02:54.465Z,2.60
2022-08-16T13:04:56.219Z,3.58
2022-08-16T13:06:59.169Z,3.00
2022-08-16T13:09:02.449Z,2.75
2022-08-16T13:11:07.609Z,2.67
2022-08-16T13:13:10.167Z,3.75
2022-08-16T13:15:15.677Z,3.28
2022-08-16T13:17:26.496Z,2.80
2022-08-16T13:19:49.832Z,2.80
2022-08-16T13:21:53.326Z,2.78
2022-08-16T13:23:55.705Z,2.55
2022-08-16T13:25:57.836Z,2.63
2022-08-16T13:28:02.033Z,2.50
2022-08-16T13:30:11.320Z,2.60
2022-08-16T13:32:40.578Z,2.60
2022-08-16T13:34:42.762Z,2.85
2022-08-16T13:36:51.917Z,2.85
2022-08-16T13:38:57.557Z,2.70
2022-08-16T13:41:02.296Z,3.08
2022-08-16T13:43:04.010Z,2.60
2022-08-16T13:45:07.666Z,2.63
2022-08-16T13:47:10.470Z,2.50
2022-08-16T13:49:11.938Z,2.72
2022-08-16T13:51:17.753Z,3.03
2022-08-16T13:53:24.142Z,4.28
2022-08-16T13:55:26.899Z,2.63
2022-08-16T13:58:35.167Z,4.55
2022-08-16T13:59:52.727Z,2.42
2022-08-16T14:02:02.646Z,2.50
2022-08-16T14:04:05.484Z,2.53
2022-08-16T14:06:11.205Z,2.25
2022-08-16T14:08:13.169Z,2.55
2022-08-16T14:10:16.933Z,2.60
2022-08-16T14:12:20.769Z,2.50
2022-08-16T14:14:28.751Z,2.63
2022-08-16T14:16:34.289Z,2.88
2022-08-16T14:18:36.326Z,2.40
2022-08-16T14:20:38.304Z,2.50
2022-08-16T14:22:42.662Z,2.88
2022-08-16T14:24:51.299Z,2.42
2022-08-16T14:26:53.004Z,3.78
2022-08-16T14:28:55.553Z,2.47
2022-08-16T14:31:03.046Z,2.60
2022-08-16T14:33:05.234Z,2.78
2022-08-16T14:35:15.644Z,2.63
2022-08-16T14:37:17.454Z,2.40
2022-08-16T14:39:21.917Z,2.30
2022-08-16T14:41:23.907Z,2.55
2022-08-16T14:43:25.939Z,2.33
2022-08-16T14:45:31.746Z,2.60
2022-08-16T14:47:37.039Z,2.53
2022-08-16T14:49:40.520Z,2.30
2022-08-16T14:51:46.180Z,2.55
2022-08-16T14:53:49.756Z,2.88
2022-08-16T14:55:54.593Z,2.30
2022-08-16T14:57:56.282Z,2.50
2022-08-16T15:00:01.984Z,2.70
2022-08-16T15:02:17.245Z,2.90
2022-08-16T15:04:47.904Z,3.17
2022-08-16T15:06:50.172Z,2.47
2022-08-16T15:08:51.765Z,2.63
2022-08-16T15:10:53.348Z,3.78
2022-08-16T15:12:56.360Z,2.25
2022-08-16T15:14:59.622Z,2.53
2022-08-16T15:17:02.239Z,2.70
2022-08-16T15:19:05.277Z,3.00
2022-08-16T15:21:08.717Z,2.88
2022-08-16T15:23:11.044Z,3.22
2022-08-16T15:25:17.813Z,2.67
2022-08-16T15:27:19.444Z,2.65
2022-08-16T15:29:20.946Z,2.55
2022-08-16T15:31:26.446Z,2.67
2022-08-16T15:33:28.130Z,2.90
2022-08-16T15:35:30.298Z,2.78
2022-08-16T15:37:42.638Z,2.58
2022-08-16T15:39:48.572Z,3.15
2022-08-16T15:42:01.008Z,2.67
2022-08-16T15:44:10.239Z,2.38
2022-08-16T15:46:54.072Z,2.70
2022-08-16T15:48:46.361Z,2.50
2022-08-16T15:50:48.900Z,2.65
2022-08-16T15:52:52.006Z,2.65
2022-08-16T15:54:55.464Z,2.60
2022-08-16T15:57:05.940Z,4.13
2022-08-16T15:59:13.409Z,2.97
2022-08-16T16:01:19.563Z,3.20
2022-08-16T16:03:27.405Z,2.70
2022-08-16T16:05:29.600Z,2.90
2022-08-16T16:07:33.272Z,3.58
2022-08-16T16:09:37.315Z,2.70
2022-08-16T16:11:39.154Z,2.67
2022-08-16T16:13:43.334Z,2.53
2022-08-16T16:15:51.184Z,2.60
2022-08-16T16:17:54.387Z,2.40
2022-08-16T16:19:55.969Z,2.58
2022-08-16T16:21:58.238Z,2.67
2022-08-16T16:24:21.020Z,2.10
2022-08-16T16:26:22.516Z,2.60
2022-08-16T16:29:06.761Z,2.67
2022-08-16T16:30:54.852Z,2.63
2022-08-16T16:32:59.236Z,2.67
2022-08-16T16:35:06.188Z,3.38
2022-08-16T16:37:10.047Z,2.22
2022-08-16T16:39:11.890Z,2.60
2022-08-16T16:41:17.689Z,2.65
2022-08-16T16:43:19.299Z,2.05
2022-08-16T16:45:34.603Z,3.35
2022-08-16T16:47:41.664Z,3.05
2022-08-16T16:49:43.649Z,2.20
2022-08-16T16:51:49.791Z,2.75
2022-08-16T16:53:56.175Z,2.97
2022-08-16T16:55:58.061Z,2.63
2022-08-16T16:58:29.042Z,2.38
2022-08-16T17:00:38.938Z,2.45
2022-08-16T17:02:49.725Z,3.50
2022-08-16T17:04:55.698Z,2.42
2022-08-16T17:06:58.093Z,2.50
2022-08-16T17:09:01.627Z,4.15
2022-08-16T17:11:03.651Z,2.50
2022-08-16T17:13:06.786Z,2.65
2022-08-16T17:15:08.889Z,2.30
2022-08-16T17:17:11.692Z,3.28
2022-08-16T17:19:22.054Z,3.08
2022-08-16T17:21:27.204Z,2.42
2022-08-16T17:23:59.135Z,2.53
2022-08-16T17:25:52.516Z,2.78
2022-08-16T17:27:54.190Z,2.55
2022-08-16T17:29:58.380Z,2.80
2022-08-16T17:34:28.844Z,2.72
2022-08-16T17:36:36.343Z,4.57
2022-08-16T17:38:44.744Z,2.60
2022-08-16T17:39:27.057Z,2.80
2022-08-16T17:40:58.794Z,3.10
2022-08-16T17:43:01.711Z,2.50
2022-08-16T17:45:03.910Z,2.45
2022-08-16T17:47:05.631Z,2.42
2022-08-16T17:49:07.620Z,2.55
2022-08-16T17:51:09.302Z,3.17
2022-08-16T17:53:11.866Z,2.63
2022-08-16T17:55:20.944Z,2.60
2022-08-16T17:57:22.461Z,2.80
2022-08-16T17:59:26.520Z,2.72
2022-08-16T18:01:28.881Z,2.35
2022-08-16T18:04:06.741Z,2.35
2022-08-16T18:05:59.262Z,3.22
2022-08-16T18:08:00.884Z,4.35
2022-08-16T18:10:03.013Z,2.88
2022-08-16T18:12:44.906Z,3.67
2022-08-16T18:14:51.968Z,2.97
2022-08-16T18:16:54.727Z,4.50
2022-08-16T18:18:57.028Z,3.40
2022-08-16T18:21:17.555Z,3.28
2022-08-16T18:23:24.684Z,3.30
2022-08-16T18:25:26.724Z,3.97
2022-08-16T18:27:29.935Z,3.05
2022-08-16T18:29:31.542Z,3.45
2022-08-16T18:31:33.959Z,4.60
2022-08-16T18:33:43.105Z,5.18
2022-08-16T18:35:45.943Z,4.30
2022-08-16T18:37:48.127Z,2.80
2022-08-16T18:39:50.104Z,3.08
2022-08-16T18:41:54.606Z,3.15
2022-08-16T18:44:25.076Z,3.35
2022-08-16T18:46:18.154Z,2.75
2022-08-16T18:48:22.558Z,2.80
2022-08-16T18:50:24.631Z,3.47
2022-08-16T18:52:26.248Z,3.03
2022-08-16T18:54:30.868Z,3.10
2022-08-16T18:56:55.229Z,3.67
2022-08-16T18:58:54.262Z,6.43
2022-08-16T19:00:57.409Z,3.33
2022-08-16T19:03:08.779Z,4.63
2022-08-16T19:05:23.129Z,3.33
2022-08-16T19:07:30.631Z,4.70
2022-08-16T19:09:33.162Z,5.32
2022-08-16T19:11:35.225Z,4.57
2022-08-16T19:13:36.924Z,4.00
2022-08-16T19:15:41.098Z,3.83
2022-08-16T19:17:44.889Z,3.40
2022-08-16T19:19:46.503Z,3.95
2022-08-16T19:21:48.069Z,3.58
2022-08-16T19:23:49.618Z,3.35
2022-08-16T19:26:00.356Z,5.93
2022-08-16T19:28:01.974Z,4.90
2022-08-16T19:30:09.150Z,4.57
2022-08-16T19:32:19.723Z,4.40
2022-08-16T19:34:21.465Z,3.63
2022-08-16T19:36:32.172Z,5.13
2022-08-16T19:38:37.846Z,7.18
2022-08-16T19:40:39.452Z,4.00
2022-08-16T19:42:46.168Z,3.90
2022-08-16T19:44:50.497Z,3.58
2022-08-16T19:46:52.056Z,5.15
2022-08-16T19:48:53.582Z,5.50
2022-08-16T19:50:55.074Z,3.88
2022-08-16T19:53:02.243Z,4.30
2022-08-16T19:55:19.384Z,4.35
2022-08-16T19:57:25.437Z,6.38
2022-08-16T19:59:39.731Z,6.50
2022-08-16T20:01:43.967Z,4.07
2022-08-16T20:03:45.550Z,3.58
2022-08-16T20:05:50.922Z,6.13
2022-08-16T20:07:54.930Z,4.20
2022-08-16T20:10:01.944Z,3.20
2022-08-16T20:12:14.142Z,3.10
2022-08-16T20:14:24.296Z,3.30
2022-08-16T20:16:27.695Z,3.35
2022-08-16T20:18:29.308Z,3.60
2022-08-16T20:20:30.882Z,5.10
2022-08-16T20:22:52.888Z,3.58
2022-08-16T20:24:56.921Z,3.20
2022-08-16T20:26:58.920Z,3.80
2022-08-16T20:29:01.592Z,5.10
2022-08-16T20:31:03.153Z,3.58
2022-08-16T20:33:13.379Z,5.30
2022-08-16T20:35:22.079Z,4.43
2022-08-16T20:37:23.772Z,4.13
2022-08-16T20:39:25.372Z,4.60
2022-08-16T20:41:29.269Z,4.07
2022-08-16T20:43:30.777Z,4.10
2022-08-16T20:45:32.486Z,4.32
2022-08-16T20:47:34.005Z,3.50
2022-08-16T20:49:36.709Z,3.55
2022-08-16T20:51:49.492Z,3.40
2022-08-16T20:53:52.605Z,4.43
2022-08-16T20:55:54.593Z,4.55
2022-08-16T20:57:56.478Z,5.03
2022-08-16T20:59:58.099Z,6.55
2022-08-16T21:01:59.817Z,4.00
2022-08-16T21:04:01.481Z,4.10
2022-08-16T21:06:04.365Z,4.78
2022-08-16T21:08:29.391Z,5.40
2022-08-16T21:10:27.833Z,3.80
2022-08-16T21:12:33.850Z,4.32
2022-08-16T21:14:39.861Z,4.15
2022-08-16T21:16:41.398Z,3.78
2022-08-16T21:18:43.137Z,4.47
2022-08-16T21:20:44.794Z,4.40
2022-08-16T21:22:58.009Z,4.00
2022-08-16T21:25:00.111Z,4.00
2022-08-16T21:27:02.745Z,5.55
2022-08-16T21:29:05.009Z,3.67
2022-08-16T21:31:10.983Z,3.55
2022-08-16T21:33:15.217Z,6.40
2022-08-16T21:35:19.150Z,3.30
2022-08-16T21:37:20.684Z,3.30
2022-08-16T21:39:22.149Z,5.13
2022-08-16T21:41:23.788Z,3.60
2022-08-16T21:43:27.507Z,3.28
2022-08-16T21:45:29.125Z,4.13
2022-08-16T21:47:30.624Z,3.70
2022-08-16T21:49:32.181Z,4.03
2022-08-16T21:51:34.685Z,3.63
2022-08-16T21:53:37.663Z,3.30
2022-08-16T21:55:41.644Z,3.33
2022-08-16T21:57:43.135Z,3.63
2022-08-16T21:59:44.686Z,3.97
2022-08-16T22:01:46.825Z,27.50
2022-08-16T22:03:49.070Z,62.15
2022-08-16T22:06:12.219Z,54.05
2022-08-16T22:08:16.976Z,42.13
2022-08-16T22:11:05.152Z,29.40
2022-08-16T22:12:41.107Z,18.67
2022-08-16T22:14:43.436Z,16.08
2022-08-16T22:16:45.264Z,8.43
2022-08-16T22:18:52.443Z,6.28
2022-08-16T22:20:54.572Z,5.22
2022-08-16T22:23:10.671Z,7.50
2022-08-16T22:25:14.394Z,4.68
2022-08-16T22:27:15.951Z,4.30
2022-08-16T22:29:17.719Z,5.80
2022-08-16T22:31:19.359Z,5.38
2022-08-16T22:33:26.264Z,5.10
2022-08-16T22:35:28.009Z,5.50
2022-08-16T22:37:29.622Z,7.53
2022-08-16T22:39:31.421Z,5.53
2022-08-16T22:41:34.619Z,5.28
2022-08-16T22:43:36.228Z,4.97
2022-08-16T22:45:38.227Z,4.70
2022-08-16T22:47:39.730Z,5.57
2022-08-16T22:49:41.423Z,5.75
2022-08-16T22:51:43.776Z,6.03
2022-08-16T22:53:45.589Z,6.53
2022-08-16T22:55:47.334Z,6.10
2022-08-16T22:57:49.662Z,5.20
2022-08-16T22:59:52.606Z,4.80
2022-08-16T23:01:55.302Z,5.00
2022-08-16T23:03:57.420Z,5.03
2022-08-16T23:06:02.467Z,6.60
2022-08-16T23:08:06.179Z,5.53
2022-08-16T23:10:08.158Z,5.72
2022-08-16T23:12:09.873Z,5.93
2022-08-16T23:14:11.391Z,5.65
2022-08-16T23:16:13.591Z,6.10
2022-08-16T23:18:16.176Z,4.75
2022-08-16T23:20:20.627Z,5.40
2022-08-16T23:22:24.643Z,6.45
2022-08-16T23:24:27.672Z,4.90
2022-08-16T23:26:44.305Z,5.28
2022-08-16T23:28:47.089Z,4.55
2022-08-16T23:30:50.239Z,4.40
2022-08-16T23:32:54.930Z,6.38
2022-08-16T23:34:56.549Z,5.55
2022-08-16T23:37:00.038Z,5.75
2022-08-16T23:39:01.748Z,5.30
2022-08-16T23:41:05.817Z,5.63
2022-08-16T23:43:13.714Z,4.93
2022-08-16T23:45:17.728Z,5.50
2022-08-16T23:47:19.196Z,4.57
2022-08-16T23:49:56.239Z,5.82
2022-08-16T23:51:43.207Z,6.10
2022-08-16T23:53:45.670Z,4.28
2022-08-16T23:55:49.838Z,6.50
2022-08-16T23:57:52.697Z,4.53
2022-08-16T23:59:54.678Z,6.15
